Time;durP1;ratioP1;P1;durP2;ratioP2;P2;SDS_P1;SDS_P2;PMS_P1;PMS_P2;Temp;Humidity;BMP_temperature;BMP_pressure;BME280_temperature;BME280_humidity;BME280_pressure;Samples;Min_cycle;Max_cycle;Signal;HPM_P1;HPM_P2
2023/08/04 00:02:19;;;;;;;8.53;3.20;;;;;;;;;;5010841;28;20212;-74
2023/08/04 00:05:04;;;;;;;10.20;3.87;;;;;;;;;;5008458;28;20246;-77
2023/08/04 00:07:49;;;;;;;13.63;3.57;;;;;;;;;;5024755;28;20703;-73
2023/08/04 00:10:34;;;;;;;9.63;3.23;;;;;;;;;;5018698;28;20224;-74
2023/08/04 00:13:19;;;;;;;11.47;3.33;;;;;;;;;;5008165;28;20266;-74
2023/08/04 00:16:11;;;;;;;8.10;3.10;;;;;;;;;;5008253;28;20594;-74
2023/08/04 00:18:57;;;;;;;9.67;3.67;;;;;;;;;;5021369;28;20215;-72
2023/08/04 00:21:42;;;;;;;11.27;3.87;;;;;;;;;;5021865;28;20204;-74
2023/08/04 00:24:28;;;;;;;9.13;3.10;;;;;;;;;;4996235;28;20192;-73
2023/08/04 00:27:13;;;;;;;10.83;3.47;;;;;;;;;;5007121;28;20770;-73
2023/08/04 00:29:59;;;;;;;6.33;2.97;;;;;;;;;;5014937;28;20196;-74
2023/08/04 00:32:44;;;;;;;13.57;3.30;;;;;;;;;;5007415;28;20200;-72
2023/08/04 00:35:29;;;;;;;7.60;3.10;;;;;;;;;;5001733;28;20188;-75
2023/08/04 00:38:14;;;;;;;7.70;2.60;;;;;;;;;;4997099;28;20224;-73
2023/08/04 00:41:00;;;;;;;9.60;3.37;;;;;;;;;;5012977;28;20192;-74
2023/08/04 00:43:45;;;;;;;7.40;3.10;;;;;;;;;;5015416;28;20216;-74
2023/08/04 00:46:30;;;;;;;7.47;3.13;;;;;;;;;;5010247;28;20184;-73
2023/08/04 00:49:18;;;;;;;9.50;3.20;;;;;;;;;;5004623;28;20809;-74
2023/08/04 00:52:03;;;;;;;7.67;3.17;;;;;;;;;;5015967;28;20184;-73
2023/08/04 00:54:48;;;;;;;7.53;3.40;;;;;;;;;;5019643;28;20259;-73
2023/08/04 00:57:34;;;;;;;4.80;2.83;;;;;;;;;;5023430;28;20191;-73
2023/08/04 01:00:19;;;;;;;7.93;2.83;;;;;;;;;;5007649;28;20235;-75
2023/08/04 01:03:04;;;;;;;8.90;3.30;;;;;;;;;;5011856;28;20307;-74
2023/08/04 01:05:54;;;;;;;7.07;2.83;;;;;;;;;;5015814;28;20316;-74
2023/08/04 01:08:41;;;;;;;9.77;3.10;;;;;;;;;;4998688;28;20641;-75
2023/08/04 01:11:32;;;;;;;11.57;3.00;;;;;;;;;;5024609;28;20278;-74
2023/08/04 01:14:19;;;;;;;7.03;3.33;;;;;;;;;;5010582;28;20193;-74
2023/08/04 01:17:21;;;;;;;9.10;2.73;;;;;;;;;;5018453;28;20211;-75
2023/08/04 01:20:06;;;;;;;7.00;3.70;;;;;;;;;;5018218;28;20204;-73
2023/08/04 01:22:52;;;;;;;9.13;3.43;;;;;;;;;;5002339;28;20215;-74
2023/08/04 01:25:37;;;;;;;7.90;2.90;;;;;;;;;;5008494;28;20199;-73
2023/08/04 01:28:23;;;;;;;14.37;3.30;;;15.40;99.90;;;;;;5023299;28;20291;-73
2023/08/04 01:31:08;;;;;;;7.23;3.17;;;15.40;99.90;;;;;;5006015;28;20197;-74
2023/08/04 01:33:52;;;;;;;12.40;3.40;;;15.50;99.90;;;;;;5009272;28;20227;-71
2023/08/04 01:36:37;;;;;;;6.07;3.03;;;15.50;99.90;;;;;;5003549;28;20561;-74
2023/08/04 01:39:21;;;;;;;11.13;2.90;;;15.50;99.90;;;;;;5006353;28;20259;-74
2023/08/04 01:42:05;;;;;;;9.43;4.10;;;15.50;99.90;;;;;;5002243;28;20601;-74
2023/08/04 01:44:49;;;;;;;11.77;4.03;;;15.50;99.90;;;;;;4994812;28;20197;-75
2023/08/04 01:47:33;;;;;;;10.60;3.30;;;15.50;99.90;;;;;;5004294;28;20252;-72
2023/08/04 01:50:18;;;;;;;7.00;3.47;;;15.50;99.90;;;;;;4996646;28;20216;-72
2023/08/04 01:53:02;;;;;;;7.07;3.33;;;15.40;99.90;;;;;;4998629;28;20669;-71
2023/08/04 01:55:48;;;;;;;7.67;3.37;;;;;;;;;;5006454;28;20195;-74
2023/08/04 01:58:32;;;;;;;7.70;3.50;;;;;;;;;;4997398;28;20259;-73
2023/08/04 02:01:17;;;;;;;8.70;3.40;;;;;;;;;;5002439;28;20184;-72
2023/08/04 02:04:02;;;;;;;11.03;3.40;;;;;;;;;;4999853;28;20225;-74
2023/08/04 02:06:47;;;;;;;10.27;3.67;;;;;;;;;;5000689;28;20231;-73
2023/08/04 02:09:33;;;;;;;9.43;3.33;;;;;;;;;;5002895;28;20215;-73
2023/08/04 02:12:18;;;;;;;12.17;3.40;;;;;;;;;;5013153;28;20187;-72
2023/08/04 02:15:04;;;;;;;8.17;2.97;;;;;;;;;;5018769;28;20196;-73
2023/08/04 02:17:50;;;;;;;6.10;2.90;;;;;;;;;;5005062;28;20255;-73
2023/08/04 02:20:34;;;;;;;10.07;3.50;;;;;;;;;;5016653;28;20200;-72
2023/08/04 02:23:19;;;;;;;7.93;2.73;;;;;;;;;;4996451;28;20331;-74
2023/08/04 02:26:04;;;;;;;7.93;3.83;;;;;;;;;;5007387;28;20692;-74
2023/08/04 02:28:50;;;;;;;11.93;3.60;;;;;;;;;;5016890;28;20208;-73
2023/08/04 02:31:35;;;;;;;8.10;3.40;;;;;;;;;;5001725;28;20176;-71
2023/08/04 02:34:20;;;;;;;9.03;3.37;;;;;;;;;;5009030;28;20184;-73
2023/08/04 02:37:05;;;;;;;8.53;3.70;;;;;;;;;;5013723;28;20192;-71
2023/08/04 02:39:51;;;;;;;8.40;3.80;;;;;;;;;;4999547;28;20267;-73
2023/08/04 02:42:36;;;;;;;6.93;3.37;;;;;;;;;;5021131;28;20239;-73
2023/08/04 02:45:21;;;;;;;8.93;3.83;;;;;;;;;;5002768;28;20201;-71
2023/08/04 02:48:07;;;;;;;14.00;3.73;;;;;;;;;;4995927;28;20298;-72
2023/08/04 02:51:03;;;;;;;14.43;3.70;;;;;;;;;;4995172;28;20692;-73
2023/08/04 02:53:50;;;;;;;6.73;3.60;;;;;;;;;;5014278;28;20316;-73
2023/08/04 02:56:34;;;;;;;8.53;2.90;;;;;;;;;;5006320;28;20278;-73
2023/08/04 02:59:19;;;;;;;7.73;3.30;;;;;;;;;;5008767;28;20224;-73
2023/08/04 03:02:04;;;;;;;9.37;4.23;;;;;;;;;;5015398;28;20207;-74
2023/08/04 03:04:49;;;;;;;10.90;3.33;;;;;;;;;;4993845;28;20600;-75
2023/08/04 03:07:34;;;;;;;9.83;3.73;;;;;;;;;;5017844;28;20619;-75
2023/08/04 03:10:19;;;;;;;9.73;3.80;;;;;;;;;;5005861;28;20196;-74
2023/08/04 03:13:04;;;;;;;10.37;3.53;;;;;;;;;;5021620;28;20199;-75
2023/08/04 03:15:57;;;;;;;8.30;3.60;;;;;;;;;;5004343;28;20184;-75
2023/08/04 03:18:42;;;;;;;8.60;3.43;;;;;;;;;;5004615;28;20223;-74
2023/08/04 03:21:27;;;;;;;8.27;3.17;;;;;;;;;;5006268;28;20196;-75
2023/08/04 03:24:12;;;;;;;5.40;3.43;;;;;;;;;;5023721;28;20207;-73
2023/08/04 03:26:57;;;;;;;13.77;4.30;;;;;;;;;;5009389;28;20185;-75
2023/08/04 03:29:42;;;;;;;10.87;3.57;;;;;;;;;;5003490;28;20221;-74
2023/08/04 03:32:28;;;;;;;9.13;3.73;;;;;;;;;;5010767;28;20188;-74
2023/08/04 03:35:13;;;;;;;7.53;3.27;;;;;;;;;;5023097;28;20192;-74
2023/08/04 03:37:58;;;;;;;9.57;3.90;;;;;;;;;;4995143;28;20711;-71
2023/08/04 03:40:44;;;;;;;8.57;3.63;;;;;;;;;;5002581;28;20180;-72
2023/08/04 03:43:29;;;;;;;7.77;3.83;;;;;;;;;;5018898;28;20220;-72
2023/08/04 03:46:15;;;;;;;6.87;4.03;;;;;;;;;;5020338;28;20204;-72
2023/08/04 03:49:00;;;;;;;17.40;4.20;;;;;;;;;;5018320;28;20212;-73
2023/08/04 03:51:45;;;;;;;8.17;3.77;;;;;;;;;;5006650;28;20327;-73
2023/08/04 03:54:31;;;;;;;12.23;4.47;;;;;;;;;;5005264;28;20707;-73
2023/08/04 03:57:16;;;;;;;8.07;3.90;;;;;;;;;;5014884;28;20605;-73
2023/08/04 04:00:02;;;;;;;6.70;4.40;;;;;;;;;;5024265;28;20207;-73
2023/08/04 04:02:48;;;;;;;9.23;4.17;;;;;;;;;;5003390;28;20303;-72
2023/08/04 04:05:33;;;;;;;8.83;4.00;;;;;;;;;;5002958;28;20188;-73
2023/08/04 04:08:18;;;;;;;8.23;3.93;;;;;;;;;;5000528;28;20207;-72
2023/08/04 04:11:03;;;;;;;9.77;4.00;;;;;;;;;;5013911;28;20183;-72
2023/08/04 04:13:49;;;;;;;8.80;4.37;;;;;;;;;;5004971;28;20188;-72
2023/08/04 04:16:34;;;;;;;9.83;4.20;;;;;;;;;;5016662;28;20244;-72
2023/08/04 04:19:19;;;;;;;12.17;4.13;;;;;;;;;;5020778;28;20209;-73
2023/08/04 04:22:04;;;;;;;12.53;4.13;;;;;;;;;;5008305;28;20555;-72
2023/08/04 04:24:50;;;;;;;8.87;4.30;;;;;;;;;;5007277;28;20707;-72
2023/08/04 04:27:36;;;;;;;6.83;4.10;;;;;;;;;;5019321;28;20207;-72
2023/08/04 04:30:20;;;;;;;14.07;4.60;;;14.90;99.90;;;;;;5013959;28;20188;-72
2023/08/04 04:33:04;;;;;;;9.27;4.43;;;15.10;99.90;;;;;;5002027;28;20188;-73
2023/08/04 04:35:49;;;;;;;11.60;4.47;;;15.10;99.90;;;;;;5009733;28;20608;-72
2023/08/04 04:38:33;;;;;;;9.20;4.77;;;15.10;99.90;;;;;;5000879;28;20220;-73
2023/08/04 04:41:17;;;;;;;9.40;3.97;;;15.10;99.90;;;;;;5009207;28;20184;-73
2023/08/04 04:44:02;;;;;;;12.60;4.50;;;;;;;;;;5005076;28;20259;-73
2023/08/04 04:46:47;;;;;;;5.63;4.27;;;;;;;;;;5006783;28;20196;-72
2023/08/04 04:49:32;;;;;;;10.20;4.90;;;;;;;;;;5007542;28;20702;-71
2023/08/04 04:52:29;;;;;;;8.23;4.10;;;;;;;;;;5004117;28;20212;-73
2023/08/04 04:55:14;;;;;;;10.40;4.53;;;;;;;;;;5007243;28;20184;-72
2023/08/04 04:57:58;;;;;;;10.87;4.97;;;14.90;99.90;;;;;;5010133;28;20208;-71
2023/08/04 05:00:42;;;;;;;10.47;4.80;;;15.20;99.90;;;;;;5000500;28;20196;-70
2023/08/04 05:03:26;;;;;;;10.63;4.47;;;15.10;99.90;;;;;;4996250;28;20751;-73
2023/08/04 05:06:10;;;;;;;12.07;4.83;;;15.10;99.90;;;;;;5001281;28;20247;-73
2023/08/04 05:08:55;;;;;;;12.13;4.97;;;15.10;99.90;;;;;;5008918;28;20292;-73
2023/08/04 05:11:39;;;;;;;11.07;4.40;;;15.20;99.90;;;;;;5001892;28;20672;-73
2023/08/04 05:14:24;;;;;;;7.57;4.50;;;15.20;99.90;;;;;;4995338;28;20616;-71
2023/08/04 05:17:08;;;;;;;10.40;4.50;;;15.20;99.90;;;;;;5007163;28;20315;-71
2023/08/04 05:19:53;;;;;;;13.90;4.53;;;15.20;99.90;;;;;;5011652;28;20193;-72
2023/08/04 05:22:40;;;;;;;13.77;4.90;;;15.20;99.90;;;;;;4999629;28;20232;-73
2023/08/04 05:25:24;;;;;;;10.77;4.40;;;15.20;99.90;;;;;;5004400;28;20224;-74
2023/08/04 05:28:30;;;;;;;9.53;4.13;;;15.20;99.90;;;;;;5011672;28;20216;-73
2023/08/04 05:31:14;;;;;;;12.67;4.47;;;15.30;99.90;;;;;;5005547;28;20180;-71
2023/08/04 05:34:00;;;;;;;10.83;4.47;;;15.20;99.90;;;;;;5008446;28;20183;-72
2023/08/04 05:36:45;;;;;;;9.90;4.40;;;15.30;99.90;;;;;;5001517;28;20713;-71
2023/08/04 05:39:31;;;;;;;7.10;4.47;;;15.30;99.90;;;;;;5000854;28;20271;-69
2023/08/04 05:42:16;;;;;;;11.23;4.40;;;15.30;99.90;;;;;;5013243;28;20188;-71
2023/08/04 05:45:00;;;;;;;10.07;4.23;;;15.20;99.90;;;;;;5006493;28;20188;-72
2023/08/04 05:47:45;;;;;;;11.27;3.73;;;15.40;99.90;;;;;;5001337;28;20184;-72
2023/08/04 05:50:29;;;;;;;9.43;4.40;;;15.40;99.90;;;;;;5012707;28;20276;-73
2023/08/04 05:53:13;;;;;;;10.37;4.93;;;15.40;99.90;;;;;;5019202;28;20243;-71
2023/08/04 05:56:00;;;;;;;11.07;4.10;;;;;;;;;;5006825;28;20254;-72
2023/08/04 05:58:46;;;;;;;11.63;4.33;;;;;;;;;;5006712;28;20235;-72
2023/08/04 06:01:32;;;;;;;13.07;4.47;;;;;;;;;;5001766;28;20200;-72
2023/08/04 06:04:17;;;;;;;17.20;4.53;;;;;;;;;;5001630;28;20224;-72
2023/08/04 06:07:02;;;;;;;9.13;4.50;;;;;;;;;;5000524;28;20180;-72
2023/08/04 06:09:48;;;;;;;9.87;4.70;;;;;;;;;;5005784;28;20290;-75
2023/08/04 06:12:35;;;;;;;9.40;4.77;;;;;;;;;;5021579;28;20208;-73
2023/08/04 06:15:20;;;;;;;11.10;4.40;;;;;;;;;;5016493;28;20196;-74
2023/08/04 06:18:05;;;;;;;9.60;5.03;;;;;;;;;;5007988;28;20207;-75
2023/08/04 06:20:51;;;;;;;8.80;4.33;;;;;;;;;;5001379;28;20188;-74
2023/08/04 06:23:35;;;;;;;7.83;4.77;;;15.70;99.90;;;;;;5004632;28;20220;-73
2023/08/04 06:26:20;;;;;;;6.00;4.77;;;;;;;;;;5000017;28;20232;-74
2023/08/04 06:29:04;;;;;;;10.20;5.00;;;;;;;;;;5009625;28;20212;-74
2023/08/04 06:31:49;;;;;;;9.53;4.80;;;;;;;;;;5005130;28;20228;-75
2023/08/04 06:34:34;;;;;;;9.03;4.90;;;;;;;;;;5001416;28;20197;-75
2023/08/04 06:37:19;;;;;;;10.40;4.83;;;;;;;;;;5021025;28;20280;-74
2023/08/04 06:40:04;;;;;;;10.43;4.77;;;;;;;;;;5018604;28;20208;-74
2023/08/04 06:42:50;;;;;;;11.97;5.10;;;;;;;;;;4997696;28;20706;-73
2023/08/04 06:45:36;;;;;;;8.33;4.83;;;;;;;;;;5004113;28;20676;-76
2023/08/04 06:48:24;;;;;;;9.27;4.63;;;;;;;;;;5011718;28;20224;-73
2023/08/04 06:51:09;;;;;;;11.00;5.20;;;;;;;;;;5009474;28;20180;-73
2023/08/04 06:53:54;;;;;;;7.17;4.50;;;;;;;;;;5018720;28;20204;-73
2023/08/04 06:56:40;;;;;;;9.23;5.13;;;;;;;;;;5005814;28;20192;-74
2023/08/04 06:59:25;;;;;;;9.40;5.63;;;;;;;;;;5006735;28;20318;-73
2023/08/04 07:02:11;;;;;;;8.67;4.97;;;;;;;;;;5002514;28;20316;-74
2023/08/04 07:04:56;;;;;;;6.77;5.37;;;;;;;;;;5017535;28;20212;-73
2023/08/04 07:07:42;;;;;;;11.55;5.18;;;;;;;;;;5022271;28;20652;-73
2023/08/04 07:10:27;;;;;;;9.20;4.88;;;;;;;;;;5020971;28;20191;-73
2023/08/04 07:13:13;;;;;;;12.50;5.60;;;;;;;;;;5004929;28;20196;-73
2023/08/04 07:15:59;;;;;;;7.07;5.47;;;;;;;;;;5002177;28;20590;-74
2023/08/04 07:18:45;;;;;;;7.03;4.83;;;;;;;;;;5017689;28;20356;-74
2023/08/04 07:21:30;;;;;;;10.77;5.37;;;;;;;;;;5010710;28;20192;-73
2023/08/04 07:24:15;;;;;;;7.30;5.25;;;;;;;;;;5002305;28;20219;-73
2023/08/04 07:27:01;;;;;;;6.87;4.70;;;;;;;;;;5001136;28;20188;-74
2023/08/04 07:29:46;;;;;;;11.10;5.37;;;;;;;;;;5020633;28;20220;-74
2023/08/04 07:32:32;;;;;;;8.75;5.00;;;;;;;;;;5016515;28;20196;-73
2023/08/04 07:35:20;;;;;;;5.65;4.25;;;;;;;;;;5000846;28;20189;-73
2023/08/04 07:38:05;;;;;;;11.13;4.97;;;;;;;;;;5018311;28;20308;-73
2023/08/04 07:40:51;;;;;;;7.82;4.50;;;;;;;;;;5018301;28;20200;-72
2023/08/04 07:43:37;;;;;;;10.18;4.28;;;;;;;;;;5006822;28;20224;-73
2023/08/04 07:46:26;;;;;;;8.93;3.80;;;;;;;;;;5013285;28;20192;-74
2023/08/04 07:49:12;;;;;;;5.47;3.90;;;;;;;;;;5010634;28;20212;-73
2023/08/04 07:51:58;;;;;;;5.13;3.70;;;;;;;;;;5009616;28;20183;-73
2023/08/04 07:54:43;;;;;;;8.93;3.45;;;;;;;;;;5014938;28;20244;-74
2023/08/04 07:57:28;;;;;;;4.07;3.08;;;;;;;;;;5014608;28;20200;-74
2023/08/04 08:00:14;;;;;;;4.28;3.13;;;;;;;;;;5012942;28;20292;-73
2023/08/04 08:03:00;;;;;;;3.30;2.42;;;;;;;;;;5003581;28;20199;-73
2023/08/04 08:05:45;;;;;;;5.68;2.83;;;;;;;;;;5007097;28;20195;-73
2023/08/04 08:08:34;;;;;;;6.18;2.20;;;;;;;;;;5008482;28;20220;-75
2023/08/04 08:11:20;;;;;;;7.35;2.10;;;;;;;;;;4998298;28;20181;-74
2023/08/04 08:14:05;;;;;;;2.50;2.00;;;;;;;;;;5010459;28;20274;-74
2023/08/04 08:16:51;;;;;;;3.22;1.90;;;;;;;;;;5004528;28;20192;-73
2023/08/04 08:19:36;;;;;;;3.50;1.98;;;;;;;;;;5018842;28;20256;-75
2023/08/04 08:22:22;;;;;;;5.30;2.08;;;;;;;;;;4999952;28;20179;-74
2023/08/04 08:25:10;;;;;;;6.32;1.65;;;;;;;;;;5019554;28;20287;-75
2023/08/04 08:27:56;;;;;;;6.40;2.25;;;;;;;;;;5016439;28;20312;-74
2023/08/04 08:30:41;;;;;;;5.78;1.75;;;;;;;;;;5005953;28;20187;-74
2023/08/04 08:33:27;;;;;;;3.80;2.20;;;;;;;;;;5001717;28;20184;-73
2023/08/04 08:36:12;;;;;;;5.03;1.70;;;;;;;;;;5003593;28;20239;-74
2023/08/04 08:38:58;;;;;;;5.65;2.10;;;;;;;;;;5015048;28;20215;-74
2023/08/04 08:41:43;;;;;;;3.58;1.92;;;;;;;;;;5007037;28;20268;-73
2023/08/04 08:44:29;;;;;;;3.53;2.13;;;;;;;;;;5020629;28;20216;-74
2023/08/04 08:47:16;;;;;;;5.47;1.80;;;;;;;;;;5020748;28;20196;-74
2023/08/04 08:50:02;;;;;;;3.15;1.48;;;;;;;;;;5008837;28;20187;-73
2023/08/04 08:52:52;;;;;;;3.05;1.30;;;;;;;;;;5021462;28;20268;-73
2023/08/04 08:55:39;;;;;;;2.78;1.42;;;;;;;;;;5018960;28;20196;-74
2023/08/04 08:58:24;;;;;;;3.35;1.42;;;;;;;;;;5020560;28;20223;-74
2023/08/04 09:01:10;;;;;;;3.92;1.48;;;;;;;;;;5008515;28;20191;-75
2023/08/04 09:03:55;;;;;;;2.03;1.20;;;;;;;;;;5000492;28;20280;-71
2023/08/04 09:06:40;;;;;;;2.20;1.15;;;;;;;;;;5007900;28;20192;-73
2023/08/04 09:09:25;;;;;;;2.70;0.98;;;;;;;;;;5013281;28;20223;-75
2023/08/04 09:12:10;;;;;;;2.15;1.00;;;;;;;;;;5014693;28;20655;-73
2023/08/04 09:14:56;;;;;;;1.65;0.88;;;;;;;;;;5008259;28;20200;-75
2023/08/04 09:17:44;;;;;;;0.63;0.50;;;;;;;;;;5015308;28;20205;-74
2023/08/04 09:20:30;;;;;;;0.55;0.43;;;;;;;;;;5005199;28;20255;-74
2023/08/04 09:23:16;;;;;;;4.38;0.63;;;;;;;;;;4997598;28;20188;-73
2023/08/04 09:26:01;;;;;;;1.02;0.73;;;;;;;;;;5012733;28;20208;-72
2023/08/04 09:28:48;;;;;;;1.52;0.65;;;;;;;;;;5012669;28;20221;-73
2023/08/04 09:31:37;;;;;;;0.80;0.60;;;;;;;;;;4995041;28;20599;-72
2023/08/04 09:34:23;;;;;;;2.58;2.25;;;;;;;;;;5003782;28;20188;-72
2023/08/04 09:37:08;;;;;;;1.10;0.52;;;;;;;;;;5007621;28;20200;-72
2023/08/04 09:39:53;;;;;;;0.43;0.40;;;;;;;;;;5015705;28;20267;-73
2023/08/04 09:42:41;;;;;;;1.50;0.40;;;;;;;;;;5022300;28;20275;-71
2023/08/04 09:45:27;;;;;;;0.32;0.32;;;;;;;;;;5004761;28;20216;-72
2023/08/04 09:48:12;;;;;;;0.40;0.40;;;;;;;;;;5005469;28;20215;-72
2023/08/04 09:51:19;;;;;;;0.30;0.30;;;;;;;;;;5002201;28;20557;-72
2023/08/04 09:54:04;;;;;;;0.43;0.43;;;;;;;;;;5010669;28;20193;-73
2023/08/04 09:56:49;;;;;;;1.70;0.45;;;;;;;;;;5016061;28;20236;-72
2023/08/04 09:59:35;;;;;;;0.50;0.30;;;;;;;;;;4997228;28;20232;-71
2023/08/04 10:02:21;;;;;;;0.75;0.40;;;;;;;;;;5002047;28;20193;-71
2023/08/04 10:05:07;;;;;;;1.00;0.50;;;;;;;;;;4999332;28;20216;-72
2023/08/04 10:07:53;;;;;;;1.48;0.60;;;;;;;;;;5004798;28;20215;-72
2023/08/04 10:10:38;;;;;;;1.05;0.50;;;;;;;;;;5018621;28;20196;-73
2023/08/04 10:13:24;;;;;;;1.45;0.60;;;;;;;;;;5018371;28;20189;-73
2023/08/04 10:16:11;;;;;;;0.50;0.50;;;;;;;;;;5000772;28;20196;-72
2023/08/04 10:18:57;;;;;;;1.15;0.70;;;;;;;;;;5001893;28;20212;-73
2023/08/04 10:21:43;;;;;;;1.70;0.70;;;;;;;;;;5000323;28;20204;-72
2023/08/04 10:24:29;;;;;;;1.38;0.60;;;;;;;;;;4994603;28;20221;-73
2023/08/04 10:27:16;;;;;;;1.10;0.65;;;;;;;;;;5021839;28;20311;-73
2023/08/04 10:30:10;;;;;;;0.90;0.65;;;;;;;;;;5005755;28;20259;-72
2023/08/04 10:33:10;;;;;;;0.65;0.57;;;;;;;;;;5016492;28;20231;-72
2023/08/04 10:36:04;;;;;;;0.70;0.50;;;;;;;;;;4995572;28;20184;-73
2023/08/04 10:38:50;;;;;;;1.10;1.00;;;;;;;;;;5008174;28;20219;-72
2023/08/04 10:41:38;;;;;;;1.95;0.52;;;;;;;;;;4997219;28;20355;-73
2023/08/04 10:44:47;;;;;;;1.35;0.70;;;;;;;;;;5010969;28;20187;-73
2023/08/04 10:47:35;;;;;;;0.80;0.55;;;;;;;;;;5003110;28;20240;-73
2023/08/04 10:50:22;;;;;;;1.27;0.70;;;;;;;;;;5018911;28;20192;-72
2023/08/04 10:53:07;;;;;;;1.35;0.70;;;;;;;;;;5007979;28;20661;-73
2023/08/04 10:55:57;;;;;;;0.98;0.70;;;;;;;;;;4996148;28;20285;-73
2023/08/04 10:58:43;;;;;;;2.47;0.80;;;;;;;;;;4999836;28;20276;-74
2023/08/04 11:01:28;;;;;;;1.58;0.80;;;;;;;;;;5014428;28;20676;-74
2023/08/04 11:04:15;;;;;;;1.55;0.93;;;;;;;;;;5003448;28;20688;-73
2023/08/04 11:07:00;;;;;;;2.28;0.60;;;;;;;;;;5004529;28;20199;-74
2023/08/04 11:09:47;;;;;;;0.90;0.70;;;;;;;;;;5014785;28;20227;-72
2023/08/04 11:12:37;;;;;;;1.48;0.90;;;;;;;;;;5009007;28;20193;-73
2023/08/04 11:15:26;;;;;;;1.50;0.80;;;;;;;;;;5003207;28;20200;-73
2023/08/04 11:18:15;;;;;;;1.63;0.63;;;;;;;;;;5001341;28;20329;-74
2023/08/04 11:21:02;;;;;;;0.95;0.77;;;;;;;;;;5016480;28;20189;-73
2023/08/04 11:23:49;;;;;;;2.42;0.68;;;;;;;;;;5021716;28;20254;-72
2023/08/04 11:26:35;;;;;;;9.73;0.95;;;;;;;;;;5006647;28;20216;-72
2023/08/04 11:29:20;;;;;;;1.83;1.08;;;;;;;;;;5020169;28;20215;-74
2023/08/04 11:32:11;;;;;;;0.63;0.60;;;;;;;;;;4998866;28;20196;-75
2023/08/04 11:34:57;;;;;;;2.70;0.70;;;;;;;;;;5011894;28;20208;-74
2023/08/04 11:37:43;;;;;;;2.45;0.85;;;;;;;;;;4998213;28;20204;-74
2023/08/04 11:40:28;;;;;;;0.98;0.70;;;;;;;;;;5019844;28;20566;-72
2023/08/04 11:43:14;;;;;;;3.70;0.75;;;;;;;;;;5021932;28;20199;-73
2023/08/04 11:46:06;;;;;;;1.20;1.10;;;;;;;;;;5020787;28;20199;-74
2023/08/04 11:48:52;;;;;;;0.98;0.60;;;;;;;;;;5022167;28;20774;-73
2023/08/04 11:51:37;;;;;;;2.22;0.80;;;;;;;;;;5016774;28;20180;-74
2023/08/04 11:54:24;;;;;;;4.07;0.90;;;;;;;;;;5009811;28;20211;-74
2023/08/04 11:57:09;;;;;;;1.83;0.85;;;;;;;;;;5005163;28;20201;-73
2023/08/04 11:59:55;;;;;;;3.15;0.93;;;;;;;;;;5015278;28;20576;-73
2023/08/04 12:02:56;;;;;;;5.05;1.33;;;;;;;;;;5008340;28;20564;-72
2023/08/04 12:05:42;;;;;;;1.70;0.82;;;;;;;;;;5009792;28;20228;-73
2023/08/04 12:08:27;;;;;;;1.50;0.82;;;;;;;;;;5006184;28;20252;-73
2023/08/04 12:11:13;;;;;;;1.58;0.93;;;;;;;;;;5016893;28;20188;-73
2023/08/04 12:14:08;;;;;;;2.25;0.80;;;;;;;;;;5008818;28;20188;-73
2023/08/04 12:16:58;;;;;;;1.98;0.90;;;;;;;;;;5013076;28;20288;-72
2023/08/04 12:19:43;;;;;;;4.78;1.27;;;;;;;;;;5004406;28;20229;-72
2023/08/04 12:22:28;;;;;;;2.63;0.80;;;;;;;;;;5016071;28;20188;-72
2023/08/04 12:25:14;;;;;;;1.52;0.85;;;;;;;;;;5005958;28;20294;-73
2023/08/04 12:28:00;;;;;;;2.33;0.90;;;;;;;;;;5022058;28;20300;-72
2023/08/04 12:30:45;;;;;;;1.10;0.80;;;;;;;;;;5006576;28;20192;-73
2023/08/04 12:33:31;;;;;;;2.92;1.00;;;;;;;;;;5002227;28;20235;-72
2023/08/04 12:36:16;;;;;;;3.28;0.80;;;;;;;;;;5009381;28;20195;-73
2023/08/04 12:39:05;;;;;;;4.55;0.90;;;;;;;;;;5018717;28;20347;-74
2023/08/04 12:41:51;;;;;;;1.77;0.90;;;;;;;;;;5001540;28;20204;-73
2023/08/04 12:44:36;;;;;;;2.25;0.80;;;;;;;;;;5002562;28;20192;-72
2023/08/04 12:47:22;;;;;;;1.30;0.82;;;;;;;;;;5015284;28;20219;-74
2023/08/04 12:50:08;;;;;;;1.13;0.95;;;;;;;;;;5002449;28;20191;-74
2023/08/04 12:52:54;;;;;;;2.47;1.00;;;;;;;;;;5001727;28;20196;-73
2023/08/04 12:55:39;;;;;;;1.98;0.70;;;;;;;;;;4999403;28;20192;-73
2023/08/04 12:58:25;;;;;;;1.77;1.02;;;;;;;;;;5003908;28;20341;-73
2023/08/04 13:01:11;;;;;;;1.77;0.77;;;;;;;;;;4999540;28;20215;-73
2023/08/04 13:03:57;;;;;;;10.85;0.93;;;;;;;;;;5005043;28;20555;-73
2023/08/04 13:06:43;;;;;;;1.02;0.77;;;;;;;;;;5006076;28;20208;-72
2023/08/04 13:09:29;;;;;;;2.03;0.70;;;;;;;;;;5016792;28;20310;-74
2023/08/04 13:12:14;;;;;;;1.35;0.60;;;;;;;;;;5001463;28;20332;-75
2023/08/04 13:14:59;;;;;;;2.22;0.70;;;;;;;;;;5004927;28;20203;-75
2023/08/04 13:17:43;;;;;;;2.42;0.73;;;20.90;99.90;;;;;;5015728;28;20204;-74
2023/08/04 13:20:27;;;;;;;0.52;0.50;;;21.00;99.90;;;;;;4995966;28;20200;-74
2023/08/04 13:23:12;;;;;;;0.90;0.57;;;20.90;99.90;;;;;;5005090;28;20188;-73
2023/08/04 13:25:56;;;;;;;0.98;0.63;;;20.90;99.90;;;;;;5020946;28;20219;-73
2023/08/04 13:28:40;;;;;;;1.02;0.60;;;20.90;99.90;;;;;;5004730;28;20215;-73
2023/08/04 13:31:24;;;;;;;3.90;0.85;;;20.90;99.90;;;;;;4994679;28;20196;-74
2023/08/04 13:34:08;;;;;;;1.20;0.85;;;;;;;;;;4996290;28;20291;-74
2023/08/04 13:36:53;;;;;;;2.30;0.77;;;;;;;;;;4999136;28;20191;-75
2023/08/04 13:39:37;;;;;;;2.53;0.82;;;20.90;99.90;;;;;;4995465;28;20220;-74
2023/08/04 13:42:22;;;;;;;1.02;0.82;;;;;;;;;;4998268;28;20219;-74
2023/08/04 13:45:07;;;;;;;2.17;0.80;;;;;;;;;;4996728;28;20209;-73
2023/08/04 13:47:52;;;;;;;2.50;0.80;;;;;;;;;;5016527;28;20606;-73
2023/08/04 13:50:37;;;;;;;3.03;0.80;;;;;;;;;;5004226;28;20191;-75
2023/08/04 13:53:22;;;;;;;0.88;0.50;;;;;;;;;;5018147;28;20592;-73
2023/08/04 13:56:07;;;;;;;1.55;0.55;;;;;;;;;;5001230;28;20192;-73
2023/08/04 13:58:53;;;;;;;2.30;0.80;;;;;;;;;;5023173;28;20257;-74
2023/08/04 14:01:38;;;;;;;1.70;0.60;;;;;;;;;;4998890;28;20256;-74
2023/08/04 14:04:23;;;;;;;1.05;0.60;;;;;;;;;;5012158;28;20188;-74
2023/08/04 14:07:08;;;;;;;1.48;0.50;;;;;;;;;;5006156;28;20267;-73
2023/08/04 14:09:53;;;;;;;1.38;0.60;;;;;;;;;;5001736;28;20216;-73
2023/08/04 14:12:38;;;;;;;2.28;0.65;;;;;;;;;;5014207;28;20501;-72
2023/08/04 14:15:25;;;;;;;1.65;0.60;;;;;;;;;;5020863;28;20210;-74
2023/08/04 14:18:10;;;;;;;1.30;0.60;;;;;;;;;;4994881;28;20574;-73
2023/08/04 14:20:59;;;;;;;1.25;0.70;;;;;;;;;;5018788;28;20187;-73
2023/08/04 14:23:44;;;;;;;3.67;0.60;;;;;;;;;;5010957;28;20188;-73
2023/08/04 14:26:29;;;;;;;4.97;0.90;;;;;;;;;;5002881;28;20371;-75
2023/08/04 14:29:17;;;;;;;2.30;0.80;;;;;;;;;;5018066;28;20267;-73
2023/08/04 14:32:03;;;;;;;3.22;0.75;;;;;;;;;;4993658;28;20668;-74
2023/08/04 14:34:48;;;;;;;2.30;0.88;;;;;;;;;;5018403;28;20188;-74
2023/08/04 14:37:33;;;;;;;1.35;0.80;;;;;;;;;;5017652;28;20200;-74
2023/08/04 14:40:18;;;;;;;2.10;0.70;;;;;;;;;;5002712;28;20675;-71
2023/08/04 14:43:03;;;;;;;4.57;1.30;;;;;;;;;;5005053;28;20184;-73
2023/08/04 14:45:48;;;;;;;1.83;0.80;;;;;;;;;;5001446;28;20215;-71
2023/08/04 14:48:33;;;;;;;1.42;0.68;;;;;;;;;;4994778;28;20306;-72
2023/08/04 14:51:18;;;;;;;1.80;0.73;;;;;;;;;;4993171;28;20188;-71
2023/08/04 14:54:04;;;;;;;2.58;0.93;;;;;;;;;;5009689;28;20244;-72
2023/08/04 14:56:50;;;;;;;1.35;0.70;;;;;;;;;;5017553;28;20753;-72
2023/08/04 14:59:35;;;;;;;4.63;1.00;;;;;;;;;;5016159;28;20227;-71
2023/08/04 15:02:20;;;;;;;3.67;1.23;;;;;;;;;;4998909;28;20188;-72
2023/08/04 15:05:06;;;;;;;1.75;0.70;;;;;;;;;;4995890;28;20304;-74
2023/08/04 15:07:52;;;;;;;1.40;0.73;;;;;;;;;;5006973;28;20223;-72
2023/08/04 15:10:37;;;;;;;2.05;0.60;;;;;;;;;;5002547;28;20320;-73
2023/08/04 15:13:22;;;;;;;1.65;0.63;;;;;;;;;;5002514;28;20184;-73
2023/08/04 15:16:08;;;;;;;1.90;0.70;;;20.90;99.90;;;;;;5014982;28;20195;-73
2023/08/04 15:18:52;;;;;;;1.85;0.57;;;21.00;99.90;;;;;;5001671;28;20215;-73
2023/08/04 15:21:36;;;;;;;6.40;1.00;;;21.00;99.90;;;;;;4998608;28;20236;-74
2023/08/04 15:24:20;;;;;;;1.65;0.60;;;21.00;99.90;;;;;;5007120;28;20253;-72
2023/08/04 15:27:07;;;;;;;2.47;0.60;;;21.00;99.90;;;;;;5001984;28;20688;-73
2023/08/04 15:29:52;;;;;;;3.15;0.80;;;21.00;99.90;;;;;;5002462;28;20263;-72
2023/08/04 15:32:37;;;;;;;1.70;0.68;;;21.00;99.90;;;;;;5010826;28;20223;-73
2023/08/04 15:35:21;;;;;;;0.63;0.60;;;21.00;99.90;;;;;;5003037;28;20199;-73
2023/08/04 15:38:06;;;;;;;1.38;0.60;;;21.10;99.90;;;;;;5003662;28;20303;-73
2023/08/04 15:41:05;;;;;;;2.72;0.80;;;21.10;99.90;;;;;;5018307;28;20564;-73
2023/08/04 15:43:50;;;;;;;3.15;0.80;;;21.10;99.90;;;;;;5026003;28;20291;-73
2023/08/04 15:46:34;;;;;;;2.13;0.85;;;21.10;99.90;;;;;;5006807;28;20243;-75
2023/08/04 15:49:18;;;;;;;4.13;1.00;;;21.10;99.90;;;;;;5007489;28;20267;-72
2023/08/04 15:52:02;;;;;;;2.63;0.88;;;21.00;99.90;;;;;;4998577;28;20192;-73
2023/08/04 15:54:47;;;;;;;2.38;0.95;;;20.90;99.90;;;;;;5008784;28;20675;-73
2023/08/04 15:57:31;;;;;;;3.70;0.90;;;20.80;99.90;;;;;;5003211;28;20555;-73
2023/08/04 16:00:15;;;;;;;1.95;0.75;;;20.70;99.90;;;;;;5005487;28;20236;-73
2023/08/04 16:03:00;;;;;;;6.03;1.23;;;;;;;;;;5008266;28;20183;-74
2023/08/04 16:05:46;;;;;;;2.92;0.82;;;;;;;;;;5007702;28;20188;-73
2023/08/04 16:08:31;;;;;;;1.17;0.80;;;;;;;;;;5005283;28;20216;-74